createdAt,value
2017-08-14T00:00:16.695Z,14.40
2017-08-14T00:02:44.420Z,14.40
2017-08-14T00:05:15.069Z,14.40
2017-08-14T00:07:42.572Z,14.30
2017-08-14T00:12:14.125Z,14.30
2017-08-14T00:14:42.044Z,14.20
2017-08-14T00:17:09.761Z,14.20
2017-08-14T00:19:37.577Z,14.20
2017-08-14T00:22:05.465Z,14.10
2017-08-14T00:24:34.414Z,14.10
2017-08-14T00:27:02.706Z,14.10
2017-08-14T00:29:32.242Z,14.00
2017-08-14T00:32:00.540Z,14.00
2017-08-14T00:34:29.613Z,14.00
2017-08-14T00:36:59.578Z,13.90
2017-08-14T00:39:27.087Z,13.90
2017-08-14T00:41:55.777Z,13.90
2017-08-14T00:44:24.062Z,13.90
2017-08-14T00:46:54.019Z,13.80
2017-08-14T00:49:21.716Z,13.80
2017-08-14T00:51:51.286Z,13.80
2017-08-14T00:54:19.085Z,13.70
2017-08-14T00:56:49.496Z,13.70
2017-08-14T00:59:17.059Z,13.70
2017-08-14T01:02:50.739Z,13.70
2017-08-14T01:05:21.757Z,13.60
2017-08-14T01:07:51.897Z,13.60
2017-08-14T01:10:23.980Z,13.60
2017-08-14T01:12:56.356Z,13.60
2017-08-14T01:15:25.981Z,13.60
2017-08-14T01:17:56.832Z,13.50
2017-08-14T01:20:26.281Z,13.50
2017-08-14T01:22:55.934Z,13.50
2017-08-14T01:25:24.890Z,13.50
2017-08-14T01:27:53.775Z,13.50
2017-08-14T01:30:23.409Z,13.50
2017-08-14T01:32:52.580Z,13.40
2017-08-14T01:35:21.634Z,13.40
2017-08-14T01:37:50.769Z,13.40
2017-08-14T01:40:19.970Z,13.30
2017-08-14T01:42:48.973Z,13.30
2017-08-14T01:45:18.121Z,13.30
2017-08-14T01:47:47.737Z,13.30
2017-08-14T01:50:16.644Z,13.20
2017-08-14T01:52:45.735Z,13.20
2017-08-14T01:55:14.623Z,13.20
2017-08-14T01:57:43.609Z,13.20
2017-08-14T02:00:15.325Z,13.10
2017-08-14T02:02:44.399Z,13.10
2017-08-14T02:05:13.239Z,13.10
2017-08-14T02:07:42.357Z,13.10
2017-08-14T02:10:13.123Z,13.10
2017-08-14T02:12:42.392Z,13.00
2017-08-14T02:15:11.921Z,13.00
2017-08-14T02:20:20.967Z,13.00
2017-08-14T02:22:50.997Z,12.90
2017-08-14T02:25:20.242Z,12.90
2017-08-14T02:27:49.442Z,12.90
2017-08-14T02:30:18.510Z,12.80
2017-08-14T02:32:47.501Z,12.80
2017-08-14T02:35:16.417Z,12.80
2017-08-14T02:37:45.753Z,12.80
2017-08-14T02:40:15.128Z,12.70
2017-08-14T02:42:44.052Z,12.70
2017-08-14T02:45:13.437Z,12.70
2017-08-14T02:47:42.841Z,12.70
2017-08-14T02:50:13.088Z,12.70
2017-08-14T02:52:42.575Z,12.70
2017-08-14T02:55:12.519Z,12.70
2017-08-14T02:57:42.228Z,12.70
2017-08-14T03:00:11.401Z,12.60
2017-08-14T03:02:40.451Z,12.60
2017-08-14T03:05:10.405Z,12.60
2017-08-14T03:07:39.351Z,12.60
2017-08-14T03:10:08.685Z,12.60
2017-08-14T03:12:37.642Z,12.60
2017-08-14T03:15:06.674Z,12.50
2017-08-14T03:17:35.824Z,12.50
2017-08-14T03:20:04.993Z,12.50
2017-08-14T03:22:33.806Z,12.50
2017-08-14T03:25:02.865Z,12.50
2017-08-14T03:27:32.402Z,12.50
2017-08-14T03:30:01.503Z,12.40
2017-08-14T03:32:30.923Z,12.40
2017-08-14T03:35:00.098Z,12.40
2017-08-14T03:37:29.336Z,12.40
2017-08-14T03:39:59.012Z,12.30
2017-08-14T03:42:28.052Z,12.30
2017-08-14T03:44:57.048Z,12.30
2017-08-14T03:47:26.029Z,12.30
2017-08-14T03:49:55.210Z,12.30
2017-08-14T03:52:23.992Z,12.30
2017-08-14T03:54:53.680Z,12.20
2017-08-14T03:57:22.517Z,12.20
2017-08-14T03:59:52.073Z,12.20
2017-08-14T04:02:20.864Z,12.20
2017-08-14T04:04:49.778Z,12.20
2017-08-14T04:07:18.564Z,12.20
2017-08-14T04:09:47.727Z,12.20
2017-08-14T04:12:16.574Z,12.10
2017-08-14T04:14:45.426Z,12.10
2017-08-14T04:17:14.273Z,12.20
2017-08-14T04:19:43.124Z,12.10
2017-08-14T04:22:12.530Z,12.10
2017-08-14T04:24:41.513Z,12.10
2017-08-14T04:27:10.505Z,12.20
2017-08-14T04:29:39.529Z,12.10
2017-08-14T04:32:08.399Z,12.20
2017-08-14T04:34:37.213Z,12.20
2017-08-14T04:37:06.260Z,12.20
2017-08-14T04:39:35.073Z,12.20
2017-08-14T04:42:03.841Z,12.20
2017-08-14T04:44:32.636Z,12.30
2017-08-14T04:47:01.492Z,12.30
2017-08-14T04:49:30.276Z,12.30
2017-08-14T04:51:59.681Z,12.30
2017-08-14T04:54:28.679Z,12.40
2017-08-14T04:56:57.681Z,12.50
2017-08-14T04:59:26.914Z,12.50
2017-08-14T05:01:56.158Z,12.60
2017-08-14T05:04:25.558Z,12.70
2017-08-14T05:06:54.594Z,12.70
2017-08-14T05:09:23.866Z,12.80
2017-08-14T05:11:53.912Z,12.80
2017-08-14T05:14:23.367Z,12.90
2017-08-14T05:16:52.767Z,12.90
2017-08-14T05:19:22.115Z,13.00
2017-08-14T05:21:51.950Z,13.00
2017-08-14T05:24:21.234Z,13.20
2017-08-14T05:26:50.845Z,13.20
2017-08-14T05:29:20.616Z,13.30
2017-08-14T05:31:50.375Z,13.40
2017-08-14T05:34:20.030Z,13.40
2017-08-14T05:36:49.180Z,13.50
2017-08-14T05:39:18.160Z,13.50
2017-08-14T05:41:46.998Z,13.60
2017-08-14T05:44:16.683Z,13.80
2017-08-14T05:46:45.956Z,13.70
2017-08-14T05:49:14.866Z,13.80
2017-08-14T05:51:43.902Z,13.90
2017-08-14T05:54:13.648Z,14.00
2017-08-14T05:56:42.854Z,14.10
2017-08-14T05:59:12.044Z,14.20
2017-08-14T06:01:41.269Z,14.20
2017-08-14T06:04:10.121Z,14.30
2017-08-14T06:06:38.950Z,14.40
2017-08-14T06:09:07.793Z,14.40
2017-08-14T06:11:36.704Z,14.40
2017-08-14T06:14:05.558Z,14.50
2017-08-14T06:16:34.354Z,14.60
2017-08-14T06:19:03.152Z,14.60
2017-08-14T06:21:32.590Z,14.70
2017-08-14T06:24:01.641Z,14.80
2017-08-14T06:26:30.702Z,14.80
2017-08-14T06:29:00.172Z,14.80
2017-08-14T06:31:29.101Z,14.90
2017-08-14T06:33:57.891Z,14.90
2017-08-14T06:36:26.825Z,14.90
2017-08-14T06:38:55.685Z,15.00
2017-08-14T06:41:24.788Z,15.20
2017-08-14T06:43:53.815Z,15.30
2017-08-14T06:46:23.279Z,15.40
2017-08-14T06:48:52.244Z,15.50
2017-08-14T06:51:21.350Z,15.60
2017-08-14T06:53:50.420Z,15.70
2017-08-14T06:56:19.429Z,15.70
2017-08-14T06:58:48.713Z,15.80
2017-08-14T07:01:17.711Z,15.90
2017-08-14T07:03:46.765Z,15.90
2017-08-14T07:06:15.834Z,16.00
2017-08-14T07:08:44.929Z,16.10
2017-08-14T07:11:14.093Z,16.20
2017-08-14T07:13:42.946Z,16.20
2017-08-14T07:16:11.804Z,16.30
2017-08-14T07:18:40.691Z,16.40
2017-08-14T07:21:09.938Z,16.50
2017-08-14T07:23:38.903Z,16.60
2017-08-14T07:26:07.859Z,16.70
2017-08-14T07:28:37.314Z,16.70
2017-08-14T07:31:06.133Z,16.80
2017-08-14T07:33:34.989Z,16.90
2017-08-14T07:36:03.849Z,16.90
2017-08-14T07:38:32.656Z,17.00
2017-08-14T07:41:02.101Z,17.10
2017-08-14T07:43:31.100Z,17.20
2017-08-14T07:46:00.036Z,17.30
2017-08-14T07:48:29.010Z,17.30
2017-08-14T07:50:58.283Z,17.30
2017-08-14T07:53:27.429Z,17.40
2017-08-14T07:55:56.568Z,17.50
2017-08-14T07:58:25.526Z,17.60
2017-08-14T08:00:54.865Z,17.60
2017-08-14T08:03:24.257Z,17.70
2017-08-14T08:05:53.089Z,17.80
2017-08-14T08:08:22.445Z,17.90
2017-08-14T08:10:51.241Z,18.10
2017-08-14T08:13:20.196Z,18.20
2017-08-14T08:15:49.173Z,18.30
2017-08-14T08:18:17.968Z,18.60
2017-08-14T08:20:46.935Z,18.50
2017-08-14T08:23:16.392Z,18.50
2017-08-14T08:25:48.106Z,18.60
2017-08-14T08:28:17.209Z,18.80
2017-08-14T08:30:46.886Z,18.90
2017-08-14T08:33:15.982Z,18.90
2017-08-14T08:35:45.123Z,19.20
2017-08-14T08:38:14.417Z,19.30
2017-08-14T08:40:43.480Z,19.20
2017-08-14T08:43:12.986Z,19.30
2017-08-14T08:45:42.061Z,19.40
2017-08-14T08:48:11.096Z,19.50
2017-08-14T08:50:41.365Z,19.60
2017-08-14T08:53:10.214Z,19.60
2017-08-14T08:55:39.117Z,19.50
2017-08-14T08:58:08.022Z,19.60
2017-08-14T09:00:37.375Z,19.70
2017-08-14T09:03:06.481Z,19.80
2017-08-14T09:05:35.474Z,19.80
2017-08-14T09:08:04.714Z,19.80
2017-08-14T09:10:33.726Z,20.00
2017-08-14T09:13:02.821Z,20.20
2017-08-14T09:15:31.834Z,20.30
2017-08-14T09:18:00.801Z,20.40
2017-08-14T09:20:30.131Z,20.50
2017-08-14T09:22:59.140Z,20.70
2017-08-14T09:25:28.122Z,20.70
2017-08-14T09:27:57.104Z,21.00
2017-08-14T09:30:26.050Z,21.20
2017-08-14T09:32:55.302Z,21.10
2017-08-14T09:35:24.176Z,21.00
2017-08-14T09:37:53.042Z,21.00
2017-08-14T09:40:21.881Z,21.00
2017-08-14T09:42:50.654Z,21.20
2017-08-14T09:45:19.527Z,21.20
2017-08-14T09:47:48.480Z,21.40
2017-08-14T09:50:17.276Z,21.60
2017-08-14T09:52:46.081Z,21.80
2017-08-14T09:55:14.923Z,22.10
2017-08-14T09:57:43.682Z,22.30
2017-08-14T10:00:12.474Z,22.30
2017-08-14T10:02:41.749Z,22.30
2017-08-14T10:05:10.662Z,22.50
2017-08-14T10:07:39.613Z,22.70
2017-08-14T10:10:08.593Z,22.60
2017-08-14T10:12:37.513Z,22.80
2017-08-14T10:15:06.777Z,23.10
2017-08-14T10:17:35.833Z,23.30
2017-08-14T10:20:04.872Z,23.80
2017-08-14T10:22:33.867Z,24.00
2017-08-14T10:25:02.817Z,24.20
2017-08-14T10:27:31.731Z,24.20
2017-08-14T10:30:00.542Z,24.30
2017-08-14T10:32:29.585Z,27.40
2017-08-14T10:34:58.373Z,32.90
2017-08-14T10:37:27.425Z,35.80
2017-08-14T10:39:56.524Z,36.00
2017-08-14T10:42:25.605Z,36.50
2017-08-14T10:44:54.904Z,37.00
2017-08-14T10:47:23.821Z,38.10
2017-08-14T10:49:52.661Z,38.00
2017-08-14T10:52:21.442Z,37.10
2017-08-14T10:54:50.270Z,38.10
2017-08-14T10:57:19.410Z,36.20
2017-08-14T10:59:48.205Z,38.00
2017-08-14T11:02:16.977Z,37.70
2017-08-14T11:04:45.757Z,38.20
2017-08-14T11:07:14.540Z,38.40
2017-08-14T11:09:44.308Z,38.30
2017-08-14T11:12:14.183Z,38.80
2017-08-14T11:14:42.993Z,35.40
2017-08-14T11:17:11.971Z,32.40
2017-08-14T11:19:41.960Z,33.90
2017-08-14T11:22:10.937Z,34.70
2017-08-14T11:24:40.639Z,35.30
2017-08-14T11:27:08.973Z,37.00
2017-08-14T11:29:37.059Z,37.70
2017-08-14T11:32:06.761Z,37.50
2017-08-14T11:34:35.582Z,36.90
2017-08-14T11:37:04.556Z,36.80
2017-08-14T11:39:33.959Z,35.60
2017-08-14T11:42:02.976Z,34.00
2017-08-14T11:44:32.005Z,33.10
2017-08-14T11:47:00.802Z,33.20
2017-08-14T11:49:29.706Z,33.80
2017-08-14T11:51:58.774Z,32.40
2017-08-14T11:54:27.918Z,31.20
2017-08-14T11:56:56.952Z,30.50
2017-08-14T11:59:26.252Z,30.10
2017-08-14T12:01:56.060Z,30.00
2017-08-14T12:04:24.934Z,30.00
2017-08-14T12:06:54.026Z,29.70
2017-08-14T12:09:22.886Z,29.10
2017-08-14T12:11:51.682Z,28.80
2017-08-14T12:14:20.849Z,28.50
2017-08-14T12:16:49.713Z,27.80
2017-08-14T12:19:18.486Z,27.50
2017-08-14T12:21:47.613Z,27.60
2017-08-14T12:24:16.381Z,27.30
2017-08-14T12:26:45.350Z,26.90
2017-08-14T12:29:14.498Z,26.40
2017-08-14T12:31:43.665Z,26.70
2017-08-14T12:34:12.591Z,27.00
2017-08-14T12:36:41.689Z,27.50
2017-08-14T12:39:12.583Z,27.30
2017-08-14T12:41:42.759Z,26.80
2017-08-14T12:44:11.724Z,26.30
2017-08-14T12:46:40.593Z,26.10
2017-08-14T12:49:09.777Z,26.10
2017-08-14T12:51:38.656Z,26.00
2017-08-14T12:54:07.482Z,25.60
2017-08-14T12:56:36.492Z,25.70
2017-08-14T12:59:05.434Z,25.50
2017-08-14T13:01:34.360Z,25.70
2017-08-14T13:04:03.266Z,26.30
2017-08-14T13:06:32.381Z,26.80
2017-08-14T13:09:01.223Z,26.50
2017-08-14T13:11:30.081Z,26.60
2017-08-14T13:13:58.914Z,26.50
2017-08-14T13:16:27.937Z,26.60
2017-08-14T13:18:57.160Z,26.80
2017-08-14T13:21:26.023Z,26.50
2017-08-14T13:23:54.862Z,26.40
2017-08-14T13:26:23.755Z,26.10
2017-08-14T13:28:52.834Z,26.10
2017-08-14T13:31:21.990Z,26.00
2017-08-14T13:33:51.047Z,26.00
2017-08-14T13:36:20.178Z,25.80
2017-08-14T13:38:49.370Z,25.80
2017-08-14T13:41:18.211Z,25.80
2017-08-14T13:43:47.213Z,25.50
2017-08-14T13:46:16.303Z,25.70
2017-08-14T13:48:45.335Z,25.80
2017-08-14T13:51:14.621Z,25.70
2017-08-14T13:53:43.953Z,25.60
2017-08-14T13:56:12.978Z,25.50
2017-08-14T13:58:42.000Z,25.40
2017-08-14T14:01:10.896Z,25.30
2017-08-14T14:19:24.023Z,26.50
2017-08-14T14:21:53.458Z,26.30
2017-08-14T14:24:22.870Z,26.20
2017-08-14T14:26:52.467Z,26.00
2017-08-14T14:29:21.712Z,25.80
2017-08-14T14:31:50.886Z,25.70
2017-08-14T14:34:20.180Z,25.70
2017-08-14T14:36:49.421Z,25.70
2017-08-14T14:39:18.783Z,25.60
2017-08-14T14:41:48.079Z,25.50
2017-08-14T14:44:17.678Z,25.40
2017-08-14T14:46:47.202Z,25.50
2017-08-14T15:00:05.203Z,25.80
2017-08-14T15:02:34.226Z,25.70
2017-08-14T15:05:03.353Z,25.70
2017-08-14T15:07:32.387Z,25.70
2017-08-14T15:10:01.414Z,25.50
2017-08-14T15:22:30.573Z,24.80
2017-08-14T15:26:27.539Z,24.90
2017-08-14T15:28:56.902Z,24.70
2017-08-14T15:31:25.833Z,24.60
2017-08-14T15:33:55.275Z,24.40
2017-08-14T15:36:24.381Z,24.40
2017-08-14T15:38:53.253Z,24.40
2017-08-14T15:41:22.124Z,24.40
2017-08-14T15:43:51.176Z,24.30
2017-08-14T15:46:20.226Z,24.30
2017-08-14T15:48:49.115Z,24.30
2017-08-14T15:51:18.785Z,24.20
2017-08-14T15:53:47.671Z,24.10
2017-08-14T15:56:17.227Z,24.10
2017-08-14T15:58:46.406Z,24.40
2017-08-14T16:01:15.344Z,24.50
2017-08-14T16:03:44.984Z,24.70
2017-08-14T16:06:13.955Z,24.80
2017-08-14T16:08:42.836Z,24.80
2017-08-14T16:11:11.730Z,24.80
2017-08-14T16:13:40.557Z,24.70
2017-08-14T16:16:09.544Z,24.60
2017-08-14T16:18:38.665Z,24.70
2017-08-14T16:21:07.798Z,24.70
2017-08-14T16:23:37.007Z,24.70
2017-08-14T16:26:06.354Z,24.90
2017-08-14T16:28:35.385Z,25.00
2017-08-14T16:31:04.527Z,25.00
2017-08-14T16:33:33.622Z,24.90
2017-08-14T16:36:02.641Z,25.00
2017-08-14T16:38:32.047Z,25.30
2017-08-14T16:41:00.867Z,25.50
2017-08-14T16:43:29.841Z,25.60
2017-08-14T16:45:58.854Z,25.80
2017-08-14T16:48:27.728Z,25.70
2017-08-14T16:50:56.786Z,25.70
2017-08-14T16:53:25.939Z,25.70
2017-08-14T16:55:55.317Z,25.70
2017-08-14T16:58:24.194Z,25.90
2017-08-14T17:00:53.130Z,26.00
2017-08-14T17:03:22.052Z,25.80
2017-08-14T17:05:51.393Z,25.90
2017-08-14T17:08:20.867Z,25.80
2017-08-14T17:10:50.212Z,25.70
2017-08-14T17:13:19.194Z,25.80
2017-08-14T17:15:48.402Z,25.80
2017-08-14T17:18:17.678Z,25.60
2017-08-14T17:20:46.742Z,25.60
2017-08-14T17:23:15.840Z,25.50
2017-08-14T17:25:44.706Z,25.30
2017-08-14T17:28:14.005Z,25.30
2017-08-14T17:30:43.081Z,25.30
2017-08-14T17:33:11.958Z,25.10
2017-08-14T17:35:40.823Z,25.00
2017-08-14T17:38:09.933Z,25.00
2017-08-14T17:40:39.623Z,25.10
2017-08-14T17:43:08.928Z,25.10
2017-08-14T17:45:47.752Z,25.00
2017-08-14T17:48:17.523Z,24.80
2017-08-14T17:50:46.967Z,24.80
2017-08-14T17:53:17.636Z,24.70
2017-08-14T17:55:46.999Z,24.60
2017-08-14T17:59:19.485Z,24.50
2017-08-14T18:01:49.582Z,24.60
2017-08-14T18:04:19.466Z,24.50
2017-08-14T18:06:50.890Z,24.40
2017-08-14T18:09:20.864Z,24.40
2017-08-14T18:11:50.070Z,24.40
2017-08-14T18:14:20.594Z,24.30
2017-08-14T18:16:49.504Z,24.40
2017-08-14T18:19:18.805Z,24.30
2017-08-14T18:21:49.422Z,24.30
2017-08-14T18:24:19.014Z,24.30
2017-08-14T18:26:52.886Z,24.30
2017-08-14T18:29:26.408Z,24.30
2017-08-14T18:31:57.396Z,24.30
2017-08-14T18:34:28.303Z,24.20
2017-08-14T18:36:59.399Z,24.10
2017-08-14T18:39:32.498Z,24.10
2017-08-14T18:42:05.105Z,24.00
2017-08-14T18:44:35.521Z,23.90
2017-08-14T18:47:06.292Z,23.90
2017-08-14T18:49:37.459Z,23.80
2017-08-14T18:52:07.929Z,23.70
2017-08-14T18:54:37.984Z,23.70
2017-08-14T18:57:07.507Z,23.70
2017-08-14T18:59:38.970Z,23.60
2017-08-14T19:02:09.275Z,23.60
2017-08-14T19:04:40.732Z,23.70
2017-08-14T19:07:10.106Z,22.30
2017-08-14T19:09:41.708Z,22.30
2017-08-14T19:12:09.750Z,22.80
2017-08-14T19:14:42.662Z,22.40
2017-08-14T19:17:13.237Z,22.10
2017-08-14T19:19:44.929Z,21.90
2017-08-14T19:22:16.017Z,21.80
2017-08-14T19:24:46.231Z,21.60
2017-08-14T19:27:17.594Z,21.40
2017-08-14T19:29:48.459Z,21.30
2017-08-14T19:32:21.838Z,21.20
2017-08-14T19:34:51.740Z,21.10
2017-08-14T19:37:21.543Z,21.10
2017-08-14T19:39:50.949Z,21.00
2017-08-14T19:42:20.346Z,20.90
2017-08-14T19:44:52.285Z,20.80
2017-08-14T19:50:43.549Z,20.70
2017-08-14T19:53:12.831Z,20.70
2017-08-14T19:55:42.271Z,20.60
2017-08-14T19:58:11.501Z,20.60
2017-08-14T20:00:41.007Z,20.60
2017-08-14T20:03:10.315Z,20.50
2017-08-14T20:05:39.542Z,20.50
2017-08-14T20:08:09.246Z,20.40
2017-08-14T20:10:39.405Z,20.40
2017-08-14T20:13:08.802Z,20.40
2017-08-14T20:15:38.193Z,20.30
2017-08-14T20:18:07.511Z,20.30
2017-08-14T20:20:36.969Z,20.30
2017-08-14T20:23:06.481Z,20.30
2017-08-14T20:25:35.793Z,20.20
2017-08-14T20:28:05.075Z,20.20
2017-08-14T20:30:34.972Z,20.20
2017-08-14T20:33:04.414Z,20.10
2017-08-14T20:35:34.086Z,20.10
2017-08-14T20:38:03.336Z,20.00
2017-08-14T20:40:33.504Z,20.00
2017-08-14T20:43:03.034Z,20.00
2017-08-14T20:45:32.693Z,19.90
2017-08-14T20:48:02.519Z,19.90
2017-08-14T20:50:32.063Z,19.90
2017-08-14T20:53:01.767Z,19.90
2017-08-14T20:55:31.019Z,19.80
2017-08-14T20:58:00.263Z,19.80
2017-08-14T21:00:29.495Z,19.90
2017-08-14T21:02:59.286Z,19.80
2017-08-14T21:05:29.097Z,19.80
2017-08-14T21:07:58.368Z,19.70
2017-08-14T21:10:27.620Z,19.70
2017-08-14T21:12:56.913Z,19.60
2017-08-14T21:15:26.120Z,19.60
2017-08-14T21:17:55.271Z,19.50
2017-08-14T21:20:24.556Z,19.50
2017-08-14T21:22:53.884Z,19.60
2017-08-14T21:25:23.192Z,19.50
2017-08-14T21:27:52.417Z,19.40
2017-08-14T21:30:21.690Z,19.40
2017-08-14T21:32:50.934Z,19.40
2017-08-14T21:35:20.222Z,19.40
2017-08-14T21:37:49.430Z,19.40
2017-08-14T21:40:19.817Z,19.40
2017-08-14T21:42:49.301Z,19.30
2017-08-14T21:45:18.537Z,19.30
2017-08-14T21:47:47.810Z,19.30
2017-08-14T21:50:17.095Z,19.20
2017-08-14T21:52:46.746Z,19.10
2017-08-14T21:55:15.971Z,19.10
2017-08-14T21:57:45.231Z,19.20
2017-08-14T22:00:14.408Z,19.10
2017-08-14T22:02:43.713Z,19.10
2017-08-14T22:05:12.867Z,19.00
2017-08-14T22:07:42.071Z,19.00
2017-08-14T22:10:11.274Z,19.00
2017-08-14T22:12:40.489Z,19.00
2017-08-14T22:15:09.675Z,19.00
2017-08-14T22:17:39.113Z,19.00
2017-08-14T22:20:08.318Z,18.90
2017-08-14T22:22:37.564Z,18.90
2017-08-14T22:25:06.833Z,18.90
2017-08-14T22:27:35.985Z,18.90
2017-08-14T22:30:05.186Z,18.80
2017-08-14T22:32:34.653Z,18.80
2017-08-14T22:35:03.816Z,18.80
2017-08-14T22:37:33.034Z,18.90
2017-08-14T22:40:02.395Z,18.90
2017-08-14T22:42:31.565Z,18.90
2017-08-14T22:45:00.781Z,18.90
2017-08-14T22:47:29.934Z,18.90
2017-08-14T22:49:59.376Z,18.90
2017-08-14T22:52:28.625Z,18.80
2017-08-14T22:55:00.770Z,18.80
2017-08-14T22:57:30.012Z,18.80
2017-08-14T22:59:59.210Z,18.80
2017-08-14T23:02:28.670Z,18.70
2017-08-14T23:04:57.867Z,18.70
2017-08-14T23:07:27.076Z,18.70
2017-08-14T23:09:56.269Z,18.60
2017-08-14T23:12:25.837Z,18.60
2017-08-14T23:14:54.992Z,18.60
2017-08-14T23:17:24.158Z,18.50
2017-08-14T23:19:53.396Z,18.50
2017-08-14T23:22:22.594Z,18.50
2017-08-14T23:24:51.862Z,18.40
2017-08-14T23:27:21.382Z,18.40
2017-08-14T23:29:50.593Z,18.40
2017-08-14T23:32:19.873Z,18.30
2017-08-14T23:34:50.102Z,18.30
2017-08-14T23:37:19.400Z,18.30
2017-08-14T23:39:49.177Z,18.30
2017-08-14T23:42:18.343Z,18.20
2017-08-14T23:44:47.555Z,18.20
2017-08-14T23:47:16.983Z,18.20
2017-08-14T23:49:46.250Z,18.20
2017-08-14T23:52:15.426Z,18.20
2017-08-14T23:54:44.650Z,18.20
2017-08-14T23:57:13.846Z,18.20
2017-08-14T23:59:43.018Z,18.10
